This is the latest recevied weather packets stored in our database for station/object SQ8AQL-16. If no packets are shown the sender has not sent any weather packets the latest 10 day(s).
| Time | Temp. | Humidity | Pressure | Rain* | Wind** | Luminosity | Snow |
|---|---|---|---|---|---|---|---|
| 1777554686 | 20.56° C | 18% | 1029.2 hPa | - | - | 664 W/m² | - |
| 1777553785 | 20.56° C | 18% | 1029.4 hPa | - | - | 162 W/m² | - |
| 1777552884 | 20.56° C | 19% | 1029.6 hPa | - | - | 745 W/m² | - |
| 1777551983 | 17.22° C | 21% | 1029.9 hPa | - | - | 780 W/m² | - |
| 1777551082 | 22.78° C | 18% | 1030.2 hPa | - | - | 347 W/m² | - |
| 1777550180 | 23.33° C | 17% | 1030.3 hPa | - | - | 824 W/m² | - |
| 1777549279 | 23.33° C | 17% | 1030.4 hPa | - | - | 824 W/m² | - |
| 1777548378 | 21.67° C | 18% | 1030.6 hPa | - | - | 866 W/m² | - |
| 1777547477 | 18.33° C | 22% | 1030.7 hPa | - | - | 192 W/m² | - |
| 1777546576 | 18.33° C | 22% | 1030.9 hPa | - | - | 801 W/m² | - |
| 1777545674 | 19.44° C | 22% | 1031.1 hPa | - | - | 704 W/m² | - |
| 1777544774 | 17.22° C | 23% | 1031.3 hPa | - | - | 734 W/m² | - |
| 1777543873 | 16.11° C | 25% | 1031.4 hPa | - | - | 743 W/m² | - |
| 1777542972 | 15.56° C | 25% | 1031.5 hPa | - | - | 622 W/m² | - |
| 1777542071 | 11.11° C | 34% | 1031.7 hPa | - | - | 87 W/m² | - |
| 1777541170 | 10° C | 34% | 1031.7 hPa | - | - | 75 W/m² | - |
| 1777540268 | 10° C | 35% | 1031.8 hPa | - | - | 78 W/m² | - |
| 1777539367 | 9.44° C | 36% | 1032.1 hPa | - | - | 58 W/m² | - |
| 1777538466 | 8.33° C | 36% | 1032 hPa | - | - | 54 W/m² | - |
| 1777537565 | 7.78° C | 43% | 1032.2 hPa | - | - | 34 W/m² | - |
| 1777536664 | 7.78° C | 43% | 1032.3 hPa | - | - | 34 W/m² | - |
| 1777535762 | 7.78° C | 43% | 1032.4 hPa | - | - | 34 W/m² | - |
| 1777534862 | 7.22° C | 45% | 1032.5 hPa | - | - | 31 W/m² | - |
| 1777533960 | 4.44° C | 56% | 1032.5 hPa | - | - | 28 W/m² | - |
| 1777533059 | 4.44° C | 56% | 1032.6 hPa | - | - | 28 W/m² | - |
* Rain since midnight (hover to see other rain measurements)
** Current wind speed in m/s (hover to see current wind gust speed)